Main page
METAR-TAF:

METAR-TAF

Airports :

Dakar, Senegal

Léopold Sédar Senghor International Airport

latitude: 14-44N, longitude: 017-30W, elevation: 27 m

Current weather observation

The report was made 22 minutes ago, at 08:30 UTC
Wind 19 kt from the North
Temperature 22°C
Humidity 83%
Pressure 1013 hPa
Visibility 10 km or more
no clouds below 1500 m and no cumulonimbus

METAR: GOOY 300830Z 01019KT CAVOK 22/19 Q1013 NOSIG

Time: 08:52 (08:52 UTC)

Forecast

The report was made 3 hours and 22 minutes ago, at 05:30 UTC
Forecast valid from 30 at 06 UTC to 01 at 12 UTC
Wind 16 kt from the North
Visibility 10 km or more
no clouds below 1500 m and no cumulonimbus

TAF: GOOY 300530Z 3006/0112 36016KT CAVOK

Weather observations and forecasts of more than 4000 airports (METAR and TAF reports).

The available stations are represented by yellow and red dots on the map.

Hover mouse over dot to see the name of the station.

Then click to see weather observations and forecasts.

To change the map : click on the green buttons with a black cross to zoom in, on the green button with a dash to zoom out, or on the green arrows for adjacent maps.


METAR-TAF: